createdAt,value
2022-08-09T00:09:56.514Z,17.70
2022-08-09T00:18:38.473Z,17.50
2022-08-09T00:27:01.099Z,17.30
2022-08-09T00:35:43.262Z,17.30
2022-08-09T00:38:29.404Z,17.30
2022-08-09T00:47:15.634Z,17.10
2022-08-09T00:52:48.297Z,17.10
2022-08-09T01:01:44.913Z,16.80
2022-08-09T01:05:13.906Z,16.90
2022-08-09T01:08:18.010Z,16.80
2022-08-09T01:11:32.421Z,16.70
2022-08-09T01:14:26.408Z,16.70
2022-08-09T01:17:19.186Z,16.60
2022-08-09T01:20:08.927Z,16.50
2022-08-09T01:23:04.348Z,16.50
2022-08-09T01:26:22.675Z,16.50
2022-08-09T01:29:15.339Z,16.20
2022-08-09T01:32:31.397Z,16.20
2022-08-09T01:35:28.864Z,16.30
2022-08-09T01:38:31.072Z,16.10
2022-08-09T01:41:26.270Z,16.10
2022-08-09T01:44:15.668Z,16.10
2022-08-09T01:47:03.828Z,16.00
2022-08-09T01:49:54.533Z,16.10
2022-08-09T01:52:43.347Z,16.10
2022-08-09T01:55:29.923Z,16.10
2022-08-09T01:58:18.405Z,16.00
2022-08-09T02:01:11.100Z,16.00
2022-08-09T02:04:05.176Z,16.00
2022-08-09T02:07:17.884Z,15.90
2022-08-09T02:10:19.659Z,16.10
2022-08-09T02:13:17.893Z,15.90
2022-08-09T02:16:11.262Z,15.90
2022-08-09T02:18:58.975Z,15.80
2022-08-09T02:21:47.451Z,15.80
2022-08-09T02:24:43.429Z,15.80
2022-08-09T02:27:43.517Z,15.90
2022-08-09T02:31:07.501Z,15.90
2022-08-09T02:34:06.306Z,15.90
2022-08-09T02:36:54.389Z,15.80
2022-08-09T02:39:49.631Z,15.70
2022-08-09T02:42:39.411Z,15.60
2022-08-09T02:45:32.931Z,15.50
2022-08-09T02:48:31.203Z,15.40
2022-08-09T02:51:20.244Z,15.40
2022-08-09T02:54:07.876Z,15.40
2022-08-09T02:56:57.054Z,15.40
2022-08-09T02:59:57.894Z,15.50
2022-08-09T03:03:00.245Z,15.60
2022-08-09T03:05:46.722Z,15.50
2022-08-09T03:08:34.454Z,15.40
2022-08-09T03:11:30.029Z,15.30
2022-08-09T03:14:31.726Z,15.40
2022-08-09T03:17:20.530Z,15.40
2022-08-09T03:20:14.065Z,15.10
2022-08-09T03:23:14.579Z,15.40
2022-08-09T03:26:06.234Z,15.30
2022-08-09T03:28:55.331Z,15.20
2022-08-09T03:32:00.045Z,15.20
2022-08-09T03:37:55.421Z,15.10
2022-08-09T03:43:31.995Z,15.00
2022-08-09T03:49:19.267Z,15.00
2022-08-09T03:52:07.745Z,15.00
2022-08-09T03:54:54.790Z,15.00
2022-08-09T03:57:53.696Z,15.00
2022-08-09T04:00:49.474Z,15.10
2022-08-09T04:03:46.123Z,15.10
2022-08-09T04:06:48.927Z,15.00
2022-08-09T04:12:49.724Z,15.10
2022-08-09T04:16:18.029Z,15.10
2022-08-09T04:21:31.225Z,15.00
2022-08-09T04:24:26.857Z,15.00
2022-08-09T04:41:05.368Z,15.30
2022-08-09T04:46:57.132Z,15.30
2022-08-09T04:52:42.122Z,15.50
2022-08-09T04:55:27.878Z,15.50
2022-08-09T05:09:42.232Z,15.70
2022-08-09T05:12:35.410Z,15.60
2022-08-09T05:15:39.220Z,15.60
2022-08-09T05:21:47.430Z,15.70
2022-08-09T05:24:41.451Z,15.80
2022-08-09T05:30:17.767Z,15.80
2022-08-09T05:38:42.989Z,15.90
2022-08-09T05:47:14.459Z,16.30
2022-08-09T05:50:29.862Z,16.20
2022-08-09T06:01:33.746Z,16.50
2022-08-09T06:15:51.490Z,17.10
2022-08-09T06:18:38.169Z,17.10
2022-08-09T06:21:23.796Z,17.10
2022-08-09T06:24:09.177Z,17.10
2022-08-09T06:26:55.304Z,17.20
2022-08-09T06:29:47.973Z,17.40
2022-08-09T06:33:13.790Z,17.50
2022-08-09T06:35:57.809Z,17.50
2022-08-09T06:38:50.282Z,17.50
2022-08-09T06:41:56.778Z,17.50
2022-08-09T06:44:43.445Z,17.60
2022-08-09T06:47:30.247Z,17.60
2022-08-09T06:50:25.837Z,17.70
2022-08-09T06:53:16.717Z,18.20
2022-08-09T06:56:03.153Z,18.10
2022-08-09T07:00:53.059Z,18.30
2022-08-09T07:01:58.132Z,18.40
2022-08-09T07:04:45.306Z,18.60
2022-08-09T07:07:59.706Z,18.60
2022-08-09T07:10:36.416Z,18.70
2022-08-09T07:13:28.076Z,18.70
2022-08-09T07:16:41.446Z,18.90
2022-08-09T07:19:23.527Z,19.00
2022-08-09T07:22:10.773Z,19.10
2022-08-09T07:24:57.153Z,19.10
2022-08-09T07:27:53.543Z,19.20
2022-08-09T07:30:41.051Z,19.30
2022-08-09T07:33:26.816Z,19.50
2022-08-09T07:36:32.401Z,19.70
2022-08-09T07:39:20.301Z,19.90
2022-08-09T07:42:32.538Z,19.90
2022-08-09T07:45:39.160Z,20.20
2022-08-09T07:48:30.317Z,20.30
2022-08-09T07:52:04.647Z,20.40
2022-08-09T07:54:28.048Z,20.60
2022-08-09T07:57:15.769Z,20.80
2022-08-09T08:00:03.700Z,21.00
2022-08-09T08:02:59.202Z,21.00
2022-08-09T08:05:54.051Z,21.10
2022-08-09T08:09:01.779Z,21.00
2022-08-09T08:12:10.476Z,21.20
2022-08-09T08:14:52.323Z,21.40
2022-08-09T08:17:53.941Z,21.50
2022-08-09T08:20:42.783Z,21.60
2022-08-09T08:23:28.518Z,21.90
2022-08-09T08:26:17.103Z,21.80
2022-08-09T08:29:12.026Z,22.00
2022-08-09T08:32:03.121Z,22.00
2022-08-09T08:34:51.999Z,22.10
2022-08-09T08:37:41.483Z,22.20
2022-08-09T08:40:49.478Z,22.30
2022-08-09T08:43:36.158Z,22.20
2022-08-09T08:46:33.075Z,22.10
2022-08-09T08:49:33.390Z,22.20
2022-08-09T08:55:32.264Z,22.20
2022-08-09T08:58:18.493Z,22.40
2022-08-09T09:01:20.756Z,22.30
2022-08-09T09:04:11.834Z,22.40
2022-08-09T09:07:01.089Z,22.50
2022-08-09T09:10:01.714Z,22.50
2022-08-09T09:12:49.654Z,22.50
2022-08-09T09:15:38.382Z,22.60
2022-08-09T09:18:25.739Z,22.60
2022-08-09T09:21:15.141Z,22.40
2022-08-09T09:24:10.579Z,22.70
2022-08-09T09:27:09.452Z,22.80
2022-08-09T09:33:20.920Z,22.90
2022-08-09T09:36:20.081Z,22.90
2022-08-09T09:39:09.988Z,23.00
2022-08-09T09:41:57.247Z,23.10
2022-08-09T09:44:42.532Z,23.20
2022-08-09T09:47:28.905Z,23.30
2022-08-09T09:50:17.545Z,23.20
2022-08-09T09:53:15.598Z,23.30
2022-08-09T09:56:04.287Z,23.30
2022-08-09T09:58:51.001Z,23.50
2022-08-09T10:01:40.798Z,23.70
2022-08-09T10:04:31.041Z,22.50
2022-08-09T10:07:26.583Z,23.70
2022-08-09T10:10:11.875Z,23.90
2022-08-09T10:12:57.779Z,24.10
2022-08-09T10:16:55.186Z,24.00
2022-08-09T10:18:59.971Z,24.20
2022-08-09T10:21:50.318Z,24.30
2022-08-09T10:24:36.369Z,24.30
2022-08-09T10:27:24.756Z,24.40
2022-08-09T10:34:04.713Z,24.30
2022-08-09T10:36:30.390Z,24.40
2022-08-09T10:39:19.254Z,24.50
2022-08-09T10:42:06.718Z,24.30
2022-08-09T10:45:02.578Z,24.60
2022-08-09T10:48:17.452Z,24.70
2022-08-09T10:51:12.180Z,24.60
2022-08-09T10:54:12.980Z,24.60
2022-08-09T10:57:10.731Z,24.60
2022-08-09T10:59:58.586Z,24.70
2022-08-09T11:03:14.733Z,25.00
2022-08-09T11:06:15.405Z,25.30
2022-08-09T11:09:16.024Z,25.20
2022-08-09T11:12:26.421Z,25.00
2022-08-09T11:15:33.575Z,24.90
2022-08-09T11:18:42.518Z,25.10
2022-08-09T11:22:05.252Z,24.90
2022-08-09T11:25:04.597Z,25.00
2022-08-09T11:28:04.333Z,25.00
2022-08-09T11:30:51.735Z,25.20
2022-08-09T11:33:51.216Z,25.40
2022-08-09T11:36:42.847Z,25.50
2022-08-09T11:39:38.084Z,25.40
2022-08-09T11:42:41.891Z,25.10
2022-08-09T11:45:42.441Z,25.10
2022-08-09T11:48:31.910Z,25.10
2022-08-09T11:53:05.685Z,24.50
2022-08-09T11:54:29.827Z,25.40
2022-08-09T11:58:00.514Z,25.50
2022-08-09T12:01:15.556Z,25.90
2022-08-09T12:04:20.976Z,26.00
2022-08-09T12:07:15.225Z,25.90
2022-08-09T12:10:03.161Z,26.10
2022-08-09T12:12:49.221Z,26.30
2022-08-09T12:15:50.067Z,26.40
2022-08-09T12:18:42.288Z,26.50
2022-08-09T12:21:38.284Z,26.70
2022-08-09T12:24:25.275Z,26.10
2022-08-09T12:29:14.710Z,26.30
2022-08-09T12:30:36.839Z,26.80
2022-08-09T12:33:35.290Z,26.20
2022-08-09T12:36:34.071Z,25.70
2022-08-09T12:39:22.173Z,26.00
2022-08-09T12:42:09.115Z,26.60
2022-08-09T12:44:55.097Z,27.10
2022-08-09T12:47:45.048Z,27.10
2022-08-09T12:50:37.616Z,26.80
2022-08-09T12:53:38.869Z,26.40
2022-08-09T12:56:37.193Z,26.30
2022-08-09T12:59:39.751Z,26.40
2022-08-09T13:02:58.416Z,26.70
2022-08-09T13:05:52.445Z,26.70
2022-08-09T13:09:12.530Z,26.80
2022-08-09T13:12:04.025Z,26.80
2022-08-09T13:14:53.729Z,26.70
2022-08-09T13:18:03.567Z,27.10
2022-08-09T13:21:04.536Z,27.40
2022-08-09T13:24:17.427Z,27.30
2022-08-09T13:27:30.811Z,27.40
2022-08-09T13:30:51.002Z,27.50
2022-08-09T13:33:51.730Z,27.40
2022-08-09T13:36:40.992Z,27.70
2022-08-09T13:41:56.385Z,27.70
2022-08-09T13:42:36.328Z,27.30
2022-08-09T13:45:22.374Z,27.20
2022-08-09T13:48:17.903Z,27.00
2022-08-09T13:51:03.244Z,27.10
2022-08-09T13:53:49.006Z,28.90
2022-08-09T13:56:34.451Z,27.60
2022-08-09T13:59:19.852Z,27.90
2022-08-09T14:02:11.037Z,27.90
2022-08-09T14:04:59.303Z,28.00
2022-08-09T14:07:45.963Z,27.70
2022-08-09T14:10:46.091Z,28.20
2022-08-09T14:14:24.069Z,28.10
2022-08-09T14:16:40.209Z,27.80
2022-08-09T14:19:26.037Z,28.70
2022-08-09T14:22:15.537Z,29.90
2022-08-09T14:25:00.984Z,31.20
2022-08-09T14:27:58.654Z,32.20
2022-08-09T14:30:44.516Z,32.20
2022-08-09T14:33:38.149Z,34.40
2022-08-09T14:36:23.924Z,32.80
2022-08-09T14:39:11.004Z,33.50
2022-08-09T14:41:56.545Z,33.80
2022-08-09T14:44:48.442Z,35.20
2022-08-09T14:47:49.605Z,34.80
2022-08-09T14:50:43.285Z,34.90
2022-08-09T14:53:31.756Z,34.60
2022-08-09T14:56:26.814Z,36.30
2022-08-09T14:59:14.317Z,35.60
2022-08-09T15:02:00.159Z,34.70
2022-08-09T15:04:47.762Z,34.30
2022-08-09T15:07:35.285Z,35.40
2022-08-09T15:10:20.852Z,34.20
2022-08-09T15:13:10.425Z,34.20
2022-08-09T15:15:55.727Z,35.90
2022-08-09T15:18:41.260Z,34.50
2022-08-09T15:21:55.401Z,34.40
2022-08-09T15:24:34.176Z,36.00
2022-08-09T15:27:19.551Z,35.60
2022-08-09T15:30:48.901Z,35.20
2022-08-09T15:33:11.408Z,34.60
2022-08-09T15:36:09.199Z,34.00
2022-08-09T15:38:54.376Z,34.40
2022-08-09T15:41:42.258Z,35.00
2022-08-09T15:44:27.877Z,36.00
2022-08-09T15:47:23.629Z,36.20
2022-08-09T15:50:18.617Z,36.40
2022-08-09T15:53:06.146Z,36.20
2022-08-09T15:55:58.921Z,34.90
2022-08-09T15:58:59.194Z,34.80
2022-08-09T16:01:44.820Z,35.00
2022-08-09T16:04:30.387Z,34.70
2022-08-09T16:07:16.984Z,35.00
2022-08-09T16:10:04.751Z,35.90
2022-08-09T16:12:54.223Z,33.50
2022-08-09T16:16:10.255Z,32.60
2022-08-09T16:18:45.635Z,31.50
2022-08-09T16:21:31.775Z,33.00
2022-08-09T16:24:32.946Z,33.90
2022-08-09T16:27:20.157Z,34.00
2022-08-09T16:30:08.400Z,34.50
2022-08-09T16:33:09.606Z,35.10
2022-08-09T16:35:59.107Z,35.30
2022-08-09T16:38:51.469Z,35.50
2022-08-09T16:41:39.318Z,35.00
2022-08-09T16:44:42.421Z,35.40
2022-08-09T16:48:38.673Z,35.30
2022-08-09T16:50:34.597Z,37.60
2022-08-09T16:53:20.012Z,35.00
2022-08-09T16:56:10.331Z,34.10
2022-08-09T16:58:56.211Z,33.00
2022-08-09T17:01:50.679Z,32.70
2022-08-09T17:04:36.976Z,31.70
2022-08-09T17:08:46.353Z,30.20
2022-08-09T17:10:28.113Z,29.50
2022-08-09T17:13:15.769Z,28.20
2022-08-09T17:16:02.316Z,28.10
2022-08-09T17:18:48.136Z,28.10
2022-08-09T17:21:33.584Z,27.90
2022-08-09T17:24:20.411Z,27.80
2022-08-09T17:27:15.539Z,27.20
2022-08-09T17:30:04.682Z,27.40
2022-08-09T17:38:30.933Z,27.10
2022-08-09T17:41:20.812Z,26.90
2022-08-09T17:44:38.572Z,26.90
2022-08-09T17:47:16.705Z,26.70
2022-08-09T17:53:04.800Z,26.30
2022-08-09T17:56:08.695Z,26.30
2022-08-09T17:59:00.870Z,26.30
2022-08-09T18:02:06.487Z,26.20
2022-08-09T18:04:51.440Z,26.10
2022-08-09T18:07:36.908Z,26.00
2022-08-09T18:10:22.358Z,26.00
2022-08-09T18:13:38.791Z,25.80
2022-08-09T18:16:16.633Z,25.70
2022-08-09T18:19:04.074Z,25.50
2022-08-09T18:22:16.731Z,25.50
2022-08-09T18:25:03.909Z,25.30
2022-08-09T18:28:03.052Z,25.30
2022-08-09T18:30:50.697Z,25.20
2022-08-09T18:33:36.217Z,25.00
2022-08-09T18:36:32.230Z,25.00
2022-08-09T18:39:22.373Z,25.00
2022-08-09T18:42:08.134Z,24.90
2022-08-09T18:44:54.704Z,24.80
2022-08-09T18:47:40.461Z,24.70
2022-08-09T18:50:26.575Z,24.60
2022-08-09T18:53:22.271Z,24.60
2022-08-09T18:56:08.809Z,24.40
2022-08-09T18:58:55.245Z,24.40
2022-08-09T19:01:46.333Z,24.30
2022-08-09T19:04:34.547Z,24.20
2022-08-09T19:07:20.726Z,24.10
2022-08-09T19:10:14.558Z,23.90
2022-08-09T19:13:22.133Z,23.80
2022-08-09T19:16:09.791Z,23.70
2022-08-09T19:18:55.354Z,23.50
2022-08-09T19:21:52.042Z,23.40
2022-08-09T19:25:09.945Z,23.20
2022-08-09T19:27:53.918Z,23.10
2022-08-09T19:30:39.957Z,22.90
2022-08-09T19:33:30.636Z,22.80
2022-08-09T19:36:16.203Z,22.60
2022-08-09T19:39:05.654Z,21.50
2022-08-09T19:41:53.431Z,22.90
2022-08-09T19:44:39.275Z,22.40
2022-08-09T19:47:27.032Z,22.20
2022-08-09T19:50:49.000Z,22.10
2022-08-09T19:53:20.880Z,24.40
2022-08-09T19:56:06.774Z,21.80
2022-08-09T19:58:56.426Z,21.80
2022-08-09T20:02:07.403Z,21.80
2022-08-09T20:05:10.259Z,21.80
2022-08-09T20:08:05.186Z,21.80
2022-08-09T20:10:52.220Z,21.60
2022-08-09T20:13:39.095Z,21.50
2022-08-09T20:16:35.866Z,21.40
2022-08-09T20:19:47.921Z,21.30
2022-08-09T20:22:32.155Z,21.20
2022-08-09T20:25:22.654Z,21.20
2022-08-09T20:28:08.592Z,21.10
2022-08-09T20:30:58.793Z,21.00
2022-08-09T20:33:45.314Z,21.00
2022-08-09T20:36:30.853Z,21.00
2022-08-09T20:40:13.715Z,21.00
2022-08-09T20:42:23.885Z,21.00
2022-08-09T20:48:20.947Z,21.20
2022-08-09T20:51:07.221Z,21.20
2022-08-09T20:54:03.768Z,21.20
2022-08-09T20:56:53.936Z,21.00
2022-08-09T21:00:19.575Z,20.80
2022-08-09T21:02:49.866Z,20.70
2022-08-09T21:05:54.410Z,20.70
2022-08-09T21:08:43.968Z,20.50
2022-08-09T21:14:40.126Z,20.50
2022-08-09T21:18:11.534Z,20.50
2022-08-09T21:20:32.549Z,20.50
2022-08-09T21:23:21.225Z,20.40
2022-08-09T21:26:12.272Z,20.40
2022-08-09T21:29:01.039Z,20.40
2022-08-09T21:31:48.894Z,20.30
2022-08-09T21:34:34.865Z,20.20
2022-08-09T21:37:20.755Z,20.10
2022-08-09T21:40:11.491Z,20.10
2022-08-09T21:42:58.697Z,20.10
2022-08-09T21:45:44.798Z,19.90
2022-08-09T21:48:30.096Z,19.90
2022-08-09T21:51:23.914Z,19.90
2022-08-09T21:54:09.608Z,19.80
2022-08-09T21:56:57.760Z,19.80
2022-08-09T21:59:43.557Z,19.70
2022-08-09T22:02:36.364Z,19.70
2022-08-09T22:05:23.828Z,19.60
2022-08-09T22:08:25.476Z,19.70
2022-08-09T22:12:04.311Z,19.70
2022-08-09T22:14:16.393Z,19.70
2022-08-09T22:17:04.525Z,19.60
2022-08-09T22:19:58.023Z,19.60
2022-08-09T22:22:44.558Z,19.60
2022-08-09T22:26:06.308Z,19.50
2022-08-09T22:28:47.225Z,19.60
2022-08-09T22:31:53.193Z,19.60
2022-08-09T22:34:42.868Z,19.50
2022-08-09T22:37:28.356Z,19.40
2022-08-09T22:40:25.569Z,19.40
2022-08-09T22:43:17.071Z,19.30
2022-08-09T22:48:15.880Z,19.30
2022-08-09T22:49:23.996Z,19.20
2022-08-09T22:52:09.352Z,19.20
2022-08-09T22:54:55.189Z,19.20
2022-08-09T22:57:59.435Z,19.10
2022-08-09T23:00:45.957Z,19.00
2022-08-09T23:04:06.111Z,19.00
2022-08-09T23:06:58.257Z,19.00
2022-08-09T23:12:29.605Z,18.60
2022-08-09T23:15:15.064Z,18.50
2022-08-09T23:18:00.359Z,18.50
2022-08-09T23:23:31.748Z,18.40
2022-08-09T23:26:17.003Z,18.40
2022-08-09T23:29:02.709Z,18.30
2022-08-09T23:40:11.967Z,18.00
2022-08-09T23:42:56.926Z,18.00
2022-08-09T23:45:42.450Z,18.10
2022-08-09T23:51:13.481Z,18.00
2022-08-09T23:54:03.012Z,18.10
2022-08-09T23:59:58.795Z,18.10
